METAR Data
IDs: Format: Raw Decoded Include TAF

Data at: 0219 UTC 25 Feb 2021

LFKS 250200Z AUTO 28006KT CAVOK 10/04 Q1032